sensor_id;sensor_type;location;lat;lon;timestamp;noise_LAeq;noise_LA_min;noise_LA_max;noise_LA01;noise_LA95
41704;Laerm;861;48.808;9.006;2023-03-01T00:01:39;35.56;34.32;36.69;;
41704;Laerm;861;48.808;9.006;2023-03-01T00:04:06;35.54;33.58;36.69;;
41704;Laerm;861;48.808;9.006;2023-03-01T00:06:32;35.53;34.25;36.86;;
41704;Laerm;861;48.808;9.006;2023-03-01T00:08:58;35.54;34.34;36.76;;
41704;Laerm;861;48.808;9.006;2023-03-01T00:11:31;35.54;34.28;36.60;;
41704;Laerm;861;48.808;9.006;2023-03-01T00:14:02;35.53;34.23;36.63;;
41704;Laerm;861;48.808;9.006;2023-03-01T00:16:44;35.53;34.28;36.89;;
41704;Laerm;861;48.808;9.006;2023-03-01T00:19:20;35.53;34.27;36.70;;
41704;Laerm;861;48.808;9.006;2023-03-01T00:21:48;35.54;34.23;36.86;;
41704;Laerm;861;48.808;9.006;2023-03-01T00:24:16;35.53;34.20;36.77;;
41704;Laerm;861;48.808;9.006;2023-03-01T00:26:42;35.52;34.11;36.70;;
41704;Laerm;861;48.808;9.006;2023-03-01T00:29:09;35.52;34.32;36.68;;
41704;Laerm;861;48.808;9.006;2023-03-01T00:31:35;35.50;34.27;36.72;;
41704;Laerm;861;48.808;9.006;2023-03-01T00:34:05;35.52;34.29;36.83;;
41704;Laerm;861;48.808;9.006;2023-03-01T00:36:36;35.53;34.06;36.67;;
41704;Laerm;861;48.808;9.006;2023-03-01T00:39:12;35.52;34.25;36.83;;
41704;Laerm;861;48.808;9.006;2023-03-01T00:41:40;35.53;34.26;36.92;;
41704;Laerm;861;48.808;9.006;2023-03-01T00:44:06;35.54;34.15;36.72;;
41704;Laerm;861;48.808;9.006;2023-03-01T00:46:32;35.54;34.12;36.76;;
41704;Laerm;861;48.808;9.006;2023-03-01T00:48:59;35.54;34.08;36.94;;
41704;Laerm;861;48.808;9.006;2023-03-01T00:51:30;35.55;34.31;36.78;;
41704;Laerm;861;48.808;9.006;2023-03-01T00:54:02;35.53;34.20;37.01;;
41704;Laerm;861;48.808;9.006;2023-03-01T00:56:30;35.53;33.99;36.65;;
41704;Laerm;861;48.808;9.006;2023-03-01T00:58:56;35.50;34.06;36.77;;
41704;Laerm;861;48.808;9.006;2023-03-01T01:01:29;35.51;34.10;36.92;;
41704;Laerm;861;48.808;9.006;2023-03-01T01:04:05;35.50;34.14;36.88;;
41704;Laerm;861;48.808;9.006;2023-03-01T01:06:46;35.53;34.27;36.81;;
41704;Laerm;861;48.808;9.006;2023-03-01T01:09:17;35.53;34.07;36.81;;
41704;Laerm;861;48.808;9.006;2023-03-01T01:11:50;35.53;33.79;36.77;;
41704;Laerm;861;48.808;9.006;2023-03-01T01:14:18;35.54;34.12;36.71;;
41704;Laerm;861;48.808;9.006;2023-03-01T01:16:45;35.53;34.19;36.72;;
41704;Laerm;861;48.808;9.006;2023-03-01T01:19:13;35.55;33.97;36.90;;
41704;Laerm;861;48.808;9.006;2023-03-01T01:21:41;35.54;34.33;36.81;;
41704;Laerm;861;48.808;9.006;2023-03-01T01:24:10;35.53;34.24;36.79;;
41704;Laerm;861;48.808;9.006;2023-03-01T01:26:36;35.52;34.11;36.80;;
41704;Laerm;861;48.808;9.006;2023-03-01T01:29:05;35.53;34.39;36.74;;
41704;Laerm;861;48.808;9.006;2023-03-01T01:31:36;35.54;34.13;36.80;;
41704;Laerm;861;48.808;9.006;2023-03-01T01:34:09;35.54;34.29;36.85;;
41704;Laerm;861;48.808;9.006;2023-03-01T01:36:38;35.54;34.25;36.73;;
41704;Laerm;861;48.808;9.006;2023-03-01T01:39:05;35.53;34.35;36.77;;
41704;Laerm;861;48.808;9.006;2023-03-01T01:41:31;35.54;34.27;36.88;;
41704;Laerm;861;48.808;9.006;2023-03-01T01:44:27;35.55;34.15;37.03;;
41704;Laerm;861;48.808;9.006;2023-03-01T01:47:06;35.55;34.26;36.84;;
41704;Laerm;861;48.808;9.006;2023-03-01T01:49:56;35.56;34.10;36.83;;
41704;Laerm;861;48.808;9.006;2023-03-01T01:52:38;35.56;34.30;36.80;;
41704;Laerm;861;48.808;9.006;2023-03-01T01:55:20;35.55;34.01;36.73;;
41704;Laerm;861;48.808;9.006;2023-03-01T01:58:00;35.55;34.22;36.82;;
41704;Laerm;861;48.808;9.006;2023-03-01T02:00:30;35.55;34.12;37.06;;
41704;Laerm;861;48.808;9.006;2023-03-01T02:03:11;35.55;34.27;36.95;;
41704;Laerm;861;48.808;9.006;2023-03-01T02:06:32;35.55;34.35;36.77;;
41704;Laerm;861;48.808;9.006;2023-03-01T02:09:15;35.54;34.06;36.81;;
41704;Laerm;861;48.808;9.006;2023-03-01T02:11:44;35.53;34.14;36.61;;
41704;Laerm;861;48.808;9.006;2023-03-01T02:14:11;35.55;34.29;36.88;;
41704;Laerm;861;48.808;9.006;2023-03-01T02:16:37;35.55;34.09;36.85;;
41704;Laerm;861;48.808;9.006;2023-03-01T02:19:08;35.53;34.08;36.71;;
41704;Laerm;861;48.808;9.006;2023-03-01T02:22:24;35.54;34.22;36.93;;
41704;Laerm;861;48.808;9.006;2023-03-01T02:25:50;35.54;33.85;36.78;;
41704;Laerm;861;48.808;9.006;2023-03-01T02:28:30;35.57;34.22;36.84;;
41704;Laerm;861;48.808;9.006;2023-03-01T02:30:58;35.58;34.32;36.74;;
41704;Laerm;861;48.808;9.006;2023-03-01T02:33:45;35.59;34.20;36.82;;
41704;Laerm;861;48.808;9.006;2023-03-01T02:36:29;35.60;34.23;36.91;;
41704;Laerm;861;48.808;9.006;2023-03-01T02:39:05;35.60;34.20;36.71;;
41704;Laerm;861;48.808;9.006;2023-03-01T02:41:39;35.61;34.49;36.88;;
41704;Laerm;861;48.808;9.006;2023-03-01T02:44:06;35.62;34.35;36.98;;
41704;Laerm;861;48.808;9.006;2023-03-01T02:46:32;35.62;34.29;36.88;;
41704;Laerm;861;48.808;9.006;2023-03-01T02:48:59;35.63;34.36;36.98;;
41704;Laerm;861;48.808;9.006;2023-03-01T02:55:14;35.64;34.28;36.74;;
41704;Laerm;861;48.808;9.006;2023-03-01T02:57:48;35.66;34.27;36.94;;
41704;Laerm;861;48.808;9.006;2023-03-01T03:00:33;35.64;34.23;36.76;;
41704;Laerm;861;48.808;9.006;2023-03-01T03:03:01;35.64;34.21;36.72;;
41704;Laerm;861;48.808;9.006;2023-03-01T03:05:32;35.64;34.17;36.89;;
41704;Laerm;861;48.808;9.006;2023-03-01T03:08:03;35.64;34.29;37.13;;
41704;Laerm;861;48.808;9.006;2023-03-01T03:10:37;35.64;34.29;37.14;;
41704;Laerm;861;48.808;9.006;2023-03-01T03:13:14;35.65;33.92;38.19;;
41704;Laerm;861;48.808;9.006;2023-03-01T03:15:43;35.65;34.42;37.08;;
41704;Laerm;861;48.808;9.006;2023-03-01T03:18:17;35.65;34.19;37.18;;
41704;Laerm;861;48.808;9.006;2023-03-01T03:20:45;35.64;34.12;36.76;;
41704;Laerm;861;48.808;9.006;2023-03-01T03:23:13;35.65;34.45;36.78;;
41704;Laerm;861;48.808;9.006;2023-03-01T03:25:39;35.65;34.14;36.91;;
41704;Laerm;861;48.808;9.006;2023-03-01T03:28:07;35.65;34.48;37.04;;
41704;Laerm;861;48.808;9.006;2023-03-01T03:30:40;35.63;34.29;36.91;;
41704;Laerm;861;48.808;9.006;2023-03-01T03:33:11;35.67;34.09;36.88;;
41704;Laerm;861;48.808;9.006;2023-03-01T03:35:49;35.64;34.28;36.84;;
41704;Laerm;861;48.808;9.006;2023-03-01T03:38:19;35.65;34.40;36.95;;
41704;Laerm;861;48.808;9.006;2023-03-01T03:41:04;35.65;34.38;36.96;;
41704;Laerm;861;48.808;9.006;2023-03-01T03:43:37;35.65;34.35;36.94;;
41704;Laerm;861;48.808;9.006;2023-03-01T03:46:04;35.66;34.28;36.78;;
41704;Laerm;861;48.808;9.006;2023-03-01T03:48:42;35.66;34.38;36.83;;
41704;Laerm;861;48.808;9.006;2023-03-01T03:51:16;35.66;34.25;36.86;;
41704;Laerm;861;48.808;9.006;2023-03-01T03:53:44;35.66;34.39;36.72;;
41704;Laerm;861;48.808;9.006;2023-03-01T03:56:12;35.66;34.42;36.86;;
41704;Laerm;861;48.808;9.006;2023-03-01T03:58:38;35.67;34.40;36.92;;
41704;Laerm;861;48.808;9.006;2023-03-01T04:01:06;35.66;34.04;37.28;;
41704;Laerm;861;48.808;9.006;2023-03-01T04:03:34;35.67;34.40;36.88;;
41704;Laerm;861;48.808;9.006;2023-03-01T04:06:03;35.67;34.45;36.90;;
41704;Laerm;861;48.808;9.006;2023-03-01T04:08:31;35.67;34.28;37.07;;
41704;Laerm;861;48.808;9.006;2023-03-01T04:11:04;35.66;34.09;37.05;;
41704;Laerm;861;48.808;9.006;2023-03-01T04:13:56;35.67;34.24;36.92;;
41704;Laerm;861;48.808;9.006;2023-03-01T04:16:23;35.68;34.34;37.20;;
41704;Laerm;861;48.808;9.006;2023-03-01T04:18:50;35.67;34.24;36.99;;
41704;Laerm;861;48.808;9.006;2023-03-01T04:21:16;35.68;34.41;37.03;;
41704;Laerm;861;48.808;9.006;2023-03-01T04:23:45;35.68;34.36;36.86;;
41704;Laerm;861;48.808;9.006;2023-03-01T04:26:12;35.68;34.27;36.82;;
41704;Laerm;861;48.808;9.006;2023-03-01T04:28:42;35.69;34.30;36.99;;
41704;Laerm;861;48.808;9.006;2023-03-01T04:31:20;35.68;34.32;36.90;;
41704;Laerm;861;48.808;9.006;2023-03-01T04:33:55;35.68;34.26;36.93;;
41704;Laerm;861;48.808;9.006;2023-03-01T04:36:27;35.68;34.42;36.77;;
41704;Laerm;861;48.808;9.006;2023-03-01T04:38:56;35.68;34.44;36.87;;
41704;Laerm;861;48.808;9.006;2023-03-01T04:41:25;35.68;34.34;36.82;;
41704;Laerm;861;48.808;9.006;2023-03-01T04:43:51;35.68;34.46;36.97;;
41704;Laerm;861;48.808;9.006;2023-03-01T04:46:21;35.68;34.13;36.86;;
41704;Laerm;861;48.808;9.006;2023-03-01T04:48:48;35.67;34.34;36.86;;
41704;Laerm;861;48.808;9.006;2023-03-01T04:51:15;35.68;34.20;36.87;;
41704;Laerm;861;48.808;9.006;2023-03-01T04:53:44;35.67;34.36;36.84;;
41704;Laerm;861;48.808;9.006;2023-03-01T04:56:11;35.67;34.08;36.94;;
41704;Laerm;861;48.808;9.006;2023-03-01T04:58:40;35.67;34.41;37.08;;
41704;Laerm;861;48.808;9.006;2023-03-01T05:01:18;35.67;34.41;37.12;;
41704;Laerm;861;48.808;9.006;2023-03-01T05:03:55;35.67;34.04;36.93;;
41704;Laerm;861;48.808;9.006;2023-03-01T05:06:21;35.66;34.34;36.89;;
41704;Laerm;861;48.808;9.006;2023-03-01T05:08:48;35.66;34.43;37.05;;
41704;Laerm;861;48.808;9.006;2023-03-01T05:11:14;35.67;34.26;36.86;;
41704;Laerm;861;48.808;9.006;2023-03-01T05:13:41;35.67;34.28;37.02;;
41704;Laerm;861;48.808;9.006;2023-03-01T05:16:09;35.66;34.36;37.02;;
41704;Laerm;861;48.808;9.006;2023-03-01T05:18:37;35.67;34.39;36.87;;
41704;Laerm;861;48.808;9.006;2023-03-01T05:21:11;35.66;33.96;36.87;;
41704;Laerm;861;48.808;9.006;2023-03-01T05:23:39;35.67;34.40;37.05;;
41704;Laerm;861;48.808;9.006;2023-03-01T05:26:08;35.66;34.40;37.14;;
41704;Laerm;861;48.808;9.006;2023-03-01T05:28:35;35.67;34.23;36.98;;
41704;Laerm;861;48.808;9.006;2023-03-01T05:31:01;35.67;34.28;36.88;;
41704;Laerm;861;48.808;9.006;2023-03-01T05:33:28;35.66;34.30;36.75;;
41704;Laerm;861;48.808;9.006;2023-03-01T05:35:59;35.67;34.16;36.85;;
41704;Laerm;861;48.808;9.006;2023-03-01T05:38:25;35.67;34.38;36.87;;
41704;Laerm;861;48.808;9.006;2023-03-01T05:40:51;35.68;34.41;36.89;;
41704;Laerm;861;48.808;9.006;2023-03-01T05:43:18;35.66;34.14;37.06;;
41704;Laerm;861;48.808;9.006;2023-03-01T05:45:45;35.65;34.26;36.86;;
41704;Laerm;861;48.808;9.006;2023-03-01T05:48:13;35.66;34.31;36.83;;
41704;Laerm;861;48.808;9.006;2023-03-01T05:50:45;35.67;34.27;36.92;;
41704;Laerm;861;48.808;9.006;2023-03-01T05:53:20;35.65;34.18;36.85;;
41704;Laerm;861;48.808;9.006;2023-03-01T05:55:49;35.66;34.27;36.85;;
41704;Laerm;861;48.808;9.006;2023-03-01T05:58:20;35.67;34.34;36.93;;
41704;Laerm;861;48.808;9.006;2023-03-01T06:00:49;35.65;34.38;36.68;;
41704;Laerm;861;48.808;9.006;2023-03-01T06:03:17;35.65;34.24;36.86;;
41704;Laerm;861;48.808;9.006;2023-03-01T06:05:44;35.66;34.20;36.94;;
41704;Laerm;861;48.808;9.006;2023-03-01T06:08:13;35.66;34.27;36.90;;
41704;Laerm;861;48.808;9.006;2023-03-01T06:10:40;35.65;34.24;36.91;;
41704;Laerm;861;48.808;9.006;2023-03-01T06:13:07;35.66;34.37;36.82;;
41704;Laerm;861;48.808;9.006;2023-03-01T06:15:39;35.65;34.43;36.91;;
41704;Laerm;861;48.808;9.006;2023-03-01T06:18:05;35.65;34.33;36.87;;
41704;Laerm;861;48.808;9.006;2023-03-01T06:20:32;35.65;34.41;36.83;;
41704;Laerm;861;48.808;9.006;2023-03-01T06:22:58;35.64;34.38;36.99;;
41704;Laerm;861;48.808;9.006;2023-03-01T06:25:27;35.65;34.19;36.89;;
41704;Laerm;861;48.808;9.006;2023-03-01T06:27:55;35.65;34.43;37.01;;
41704;Laerm;861;48.808;9.006;2023-03-01T06:30:25;35.64;34.27;36.81;;
41704;Laerm;861;48.808;9.006;2023-03-01T06:32:52;35.64;34.35;36.81;;
41704;Laerm;861;48.808;9.006;2023-03-01T06:35:28;35.64;34.21;36.77;;
41704;Laerm;861;48.808;9.006;2023-03-01T06:37:59;35.65;34.31;36.91;;
41704;Laerm;861;48.808;9.006;2023-03-01T06:40:25;35.65;34.33;37.08;;
41704;Laerm;861;48.808;9.006;2023-03-01T06:42:51;35.65;33.95;37.05;;
41704;Laerm;861;48.808;9.006;2023-03-01T06:45:21;35.66;34.36;36.95;;
41704;Laerm;861;48.808;9.006;2023-03-01T06:47:48;35.65;34.23;36.87;;
41704;Laerm;861;48.808;9.006;2023-03-01T06:50:16;35.65;34.42;36.97;;
41704;Laerm;861;48.808;9.006;2023-03-01T06:52:44;35.66;34.43;36.99;;
41704;Laerm;861;48.808;9.006;2023-03-01T06:55:13;35.65;34.29;36.99;;
41704;Laerm;861;48.808;9.006;2023-03-01T06:57:39;35.65;34.41;36.81;;
41704;Laerm;861;48.808;9.006;2023-03-01T07:00:07;35.63;34.10;36.90;;
41704;Laerm;861;48.808;9.006;2023-03-01T07:02:34;35.66;34.45;36.86;;
41704;Laerm;861;48.808;9.006;2023-03-01T07:05:00;35.65;34.21;36.81;;
41704;Laerm;861;48.808;9.006;2023-03-01T07:07:26;35.67;34.39;37.04;;
41704;Laerm;861;48.808;9.006;2023-03-01T07:09:52;35.66;34.28;36.99;;
41704;Laerm;861;48.808;9.006;2023-03-01T07:12:19;35.67;34.30;36.94;;
41704;Laerm;861;48.808;9.006;2023-03-01T07:14:45;35.66;34.29;36.99;;
41704;Laerm;861;48.808;9.006;2023-03-01T07:17:11;35.65;34.39;36.88;;
41704;Laerm;861;48.808;9.006;2023-03-01T07:19:37;35.65;34.28;37.11;;
41704;Laerm;861;48.808;9.006;2023-03-01T07:22:04;35.64;34.38;37.20;;
41704;Laerm;861;48.808;9.006;2023-03-01T07:24:34;35.65;34.35;36.72;;
41704;Laerm;861;48.808;9.006;2023-03-01T07:27:00;35.66;34.42;36.83;;
41704;Laerm;861;48.808;9.006;2023-03-01T07:29:26;35.65;34.47;37.03;;
41704;Laerm;861;48.808;9.006;2023-03-01T07:31:54;35.65;34.29;36.80;;
41704;Laerm;861;48.808;9.006;2023-03-01T07:34:20;35.67;34.44;36.80;;
41704;Laerm;861;48.808;9.006;2023-03-01T07:36:46;35.66;34.25;36.95;;
41704;Laerm;861;48.808;9.006;2023-03-01T07:39:13;35.67;34.27;36.81;;
41704;Laerm;861;48.808;9.006;2023-03-01T07:41:39;35.67;34.24;36.79;;
41704;Laerm;861;48.808;9.006;2023-03-01T07:44:05;35.68;34.40;36.87;;
41704;Laerm;861;48.808;9.006;2023-03-01T07:46:32;35.68;34.19;36.81;;
41704;Laerm;861;48.808;9.006;2023-03-01T07:48:59;35.68;34.31;36.79;;
41704;Laerm;861;48.808;9.006;2023-03-01T07:51:25;35.68;34.45;36.98;;
41704;Laerm;861;48.808;9.006;2023-03-01T07:53:52;35.69;34.40;37.04;;
41704;Laerm;861;48.808;9.006;2023-03-01T07:56:18;35.69;34.48;36.86;;
41704;Laerm;861;48.808;9.006;2023-03-01T07:58:46;35.71;34.46;36.90;;
41704;Laerm;861;48.808;9.006;2023-03-01T08:01:18;35.70;34.47;37.10;;
41704;Laerm;861;48.808;9.006;2023-03-01T08:03:45;35.72;34.50;36.97;;
41704;Laerm;861;48.808;9.006;2023-03-01T08:06:16;35.72;34.44;36.87;;
41704;Laerm;861;48.808;9.006;2023-03-01T08:08:43;35.74;34.19;37.01;;
41704;Laerm;861;48.808;9.006;2023-03-01T08:11:14;35.75;34.43;37.24;;
41704;Laerm;861;48.808;9.006;2023-03-01T08:13:42;35.75;34.48;37.14;;
41704;Laerm;861;48.808;9.006;2023-03-01T08:16:15;35.76;34.49;37.14;;
41704;Laerm;861;48.808;9.006;2023-03-01T08:18:42;35.77;34.32;36.93;;
41704;Laerm;861;48.808;9.006;2023-03-01T08:21:17;35.78;34.32;37.13;;
41704;Laerm;861;48.808;9.006;2023-03-01T08:23:45;35.80;34.43;36.93;;
41704;Laerm;861;48.808;9.006;2023-03-01T08:26:21;35.81;34.35;37.05;;
41704;Laerm;861;48.808;9.006;2023-03-01T08:28:49;35.84;34.44;37.04;;
41704;Laerm;861;48.808;9.006;2023-03-01T08:31:31;35.85;34.38;37.07;;
41704;Laerm;861;48.808;9.006;2023-03-01T08:34:04;35.85;34.40;37.18;;
41704;Laerm;861;48.808;9.006;2023-03-01T08:36:39;35.86;34.55;37.15;;
41704;Laerm;861;48.808;9.006;2023-03-01T08:39:11;35.89;34.44;37.25;;
41704;Laerm;861;48.808;9.006;2023-03-01T08:41:39;35.90;34.57;37.39;;
41704;Laerm;861;48.808;9.006;2023-03-01T08:44:09;35.91;34.57;37.09;;
41704;Laerm;861;48.808;9.006;2023-03-01T08:46:43;35.93;34.64;37.15;;
41704;Laerm;861;48.808;9.006;2023-03-01T08:49:18;35.95;34.67;37.07;;
41704;Laerm;861;48.808;9.006;2023-03-01T08:51:47;35.97;34.69;37.16;;
41704;Laerm;861;48.808;9.006;2023-03-01T08:54:20;36.04;34.78;37.36;;
41704;Laerm;861;48.808;9.006;2023-03-01T08:56:48;36.21;34.82;37.35;;
41704;Laerm;861;48.808;9.006;2023-03-01T08:59:17;36.40;34.98;37.75;;
41704;Laerm;861;48.808;9.006;2023-03-01T09:01:43;36.54;35.26;37.79;;
41704;Laerm;861;48.808;9.006;2023-03-01T09:04:12;36.63;35.32;37.84;;
41704;Laerm;861;48.808;9.006;2023-03-01T09:06:40;37.10;35.14;63.22;;
41704;Laerm;861;48.808;9.006;2023-03-01T09:09:14;36.66;35.05;37.96;;
41704;Laerm;861;48.808;9.006;2023-03-01T09:11:43;36.70;35.32;37.97;;
41704;Laerm;861;48.808;9.006;2023-03-01T09:14:13;36.71;35.35;37.87;;
41704;Laerm;861;48.808;9.006;2023-03-01T09:16:39;36.72;35.39;37.75;;
41704;Laerm;861;48.808;9.006;2023-03-01T09:19:06;36.72;35.39;37.88;;
41704;Laerm;861;48.808;9.006;2023-03-01T09:21:32;36.73;35.44;38.08;;
41704;Laerm;861;48.808;9.006;2023-03-01T09:23:59;36.74;35.37;37.91;;
41704;Laerm;861;48.808;9.006;2023-03-01T09:26:25;36.77;35.29;37.94;;
41704;Laerm;861;48.808;9.006;2023-03-01T09:28:56;36.76;35.36;37.98;;
41704;Laerm;861;48.808;9.006;2023-03-01T09:31:24;36.75;35.29;37.97;;
41704;Laerm;861;48.808;9.006;2023-03-01T09:33:53;36.77;35.33;37.87;;
41704;Laerm;861;48.808;9.006;2023-03-01T09:36:24;36.79;35.52;37.95;;
41704;Laerm;861;48.808;9.006;2023-03-01T09:38:53;36.78;35.38;37.93;;
41704;Laerm;861;48.808;9.006;2023-03-01T09:42:01;36.77;35.39;37.95;;
41704;Laerm;861;48.808;9.006;2023-03-01T09:44:52;36.76;35.22;40.14;;
41704;Laerm;861;48.808;9.006;2023-03-01T09:47:28;36.78;35.32;38.13;;
41704;Laerm;861;48.808;9.006;2023-03-01T10:02:46;36.79;35.54;38.00;;
41704;Laerm;861;48.808;9.006;2023-03-01T10:09:02;36.81;35.47;38.11;;
41704;Laerm;861;48.808;9.006;2023-03-01T10:11:42;36.81;35.27;38.04;;
41704;Laerm;861;48.808;9.006;2023-03-01T10:14:40;36.79;35.37;38.19;;
41704;Laerm;861;48.808;9.006;2023-03-01T10:18:14;36.80;35.37;38.15;;
41704;Laerm;861;48.808;9.006;2023-03-01T10:21:01;36.82;35.48;38.09;;
41704;Laerm;861;48.808;9.006;2023-03-01T10:23:35;36.82;35.36;38.06;;
41704;Laerm;861;48.808;9.006;2023-03-01T10:26:44;36.83;35.48;37.99;;
41704;Laerm;861;48.808;9.006;2023-03-01T10:29:14;36.85;35.44;38.15;;
41704;Laerm;861;48.808;9.006;2023-03-01T10:31:53;36.83;35.47;38.46;;
41704;Laerm;861;48.808;9.006;2023-03-01T10:34:31;36.86;35.52;45.78;;
41704;Laerm;861;48.808;9.006;2023-03-01T10:37:17;36.82;35.30;38.15;;
41704;Laerm;861;48.808;9.006;2023-03-01T10:40:08;36.84;35.35;38.07;;
41704;Laerm;861;48.808;9.006;2023-03-01T10:42:49;36.84;35.59;38.06;;
41704;Laerm;861;48.808;9.006;2023-03-01T10:45:39;36.82;35.56;38.41;;
41704;Laerm;861;48.808;9.006;2023-03-01T10:48:26;36.83;35.50;38.14;;
41704;Laerm;861;48.808;9.006;2023-03-01T10:53:43;36.81;35.39;38.05;;
41704;Laerm;861;48.808;9.006;2023-03-01T10:56:16;36.82;35.30;38.04;;
41704;Laerm;861;48.808;9.006;2023-03-01T10:59:03;36.83;35.38;38.27;;
41704;Laerm;861;48.808;9.006;2023-03-01T11:01:35;36.75;35.21;38.83;;
41704;Laerm;861;48.808;9.006;2023-03-01T11:06:40;36.78;35.49;38.09;;
41704;Laerm;861;48.808;9.006;2023-03-01T11:09:25;36.78;35.44;38.07;;
41704;Laerm;861;48.808;9.006;2023-03-01T11:11:59;36.80;35.49;37.95;;
41704;Laerm;861;48.808;9.006;2023-03-01T11:14:51;36.78;35.41;37.98;;
41704;Laerm;861;48.808;9.006;2023-03-01T11:17:31;36.78;35.46;38.11;;
41704;Laerm;861;48.808;9.006;2023-03-01T11:20:17;36.77;35.28;37.98;;
41704;Laerm;861;48.808;9.006;2023-03-01T11:29:57;36.74;35.24;38.01;;
41704;Laerm;861;48.808;9.006;2023-03-01T11:32:43;36.73;35.31;37.87;;
41704;Laerm;861;48.808;9.006;2023-03-01T11:35:24;36.75;35.37;38.22;;
41704;Laerm;861;48.808;9.006;2023-03-01T11:40:49;36.75;35.29;38.44;;
41704;Laerm;861;48.808;9.006;2023-03-01T11:43:55;36.67;35.07;38.01;;
41704;Laerm;861;48.808;9.006;2023-03-01T11:50:24;36.61;35.26;37.97;;
41704;Laerm;861;48.808;9.006;2023-03-01T11:56:41;36.60;35.14;37.86;;
41704;Laerm;861;48.808;9.006;2023-03-01T12:00:40;36.62;35.20;38.03;;
41704;Laerm;861;48.808;9.006;2023-03-01T12:03:33;36.56;34.94;37.70;;
41704;Laerm;861;48.808;9.006;2023-03-01T12:06:47;36.56;35.10;37.84;;
41704;Laerm;861;48.808;9.006;2023-03-01T12:19:26;36.51;34.86;38.22;;
41704;Laerm;861;48.808;9.006;2023-03-01T12:22:38;36.45;34.88;40.44;;
41704;Laerm;861;48.808;9.006;2023-03-01T12:29:26;36.43;34.84;37.66;;
41704;Laerm;861;48.808;9.006;2023-03-01T12:39:01;36.44;34.97;40.91;;
41704;Laerm;861;48.808;9.006;2023-03-01T12:42:30;36.35;34.99;37.62;;
41704;Laerm;861;48.808;9.006;2023-03-01T12:49:14;36.34;34.68;37.83;;
41704;Laerm;861;48.808;9.006;2023-03-01T12:52:03;36.37;35.04;41.86;;
41704;Laerm;861;48.808;9.006;2023-03-01T12:54:37;36.30;34.99;38.78;;
41704;Laerm;861;48.808;9.006;2023-03-01T12:57:45;36.29;34.81;40.76;;
41704;Laerm;861;48.808;9.006;2023-03-01T13:04:07;36.24;34.93;42.90;;
41704;Laerm;861;48.808;9.006;2023-03-01T13:07:16;36.23;34.67;43.34;;
41704;Laerm;861;48.808;9.006;2023-03-01T13:10:46;36.27;35.01;39.48;;
41704;Laerm;861;48.808;9.006;2023-03-01T13:13:26;36.24;34.78;38.71;;
41704;Laerm;861;48.808;9.006;2023-03-01T13:15:55;36.25;34.84;38.12;;
41704;Laerm;861;48.808;9.006;2023-03-01T13:21:00;36.23;34.81;38.94;;
41704;Laerm;861;48.808;9.006;2023-03-01T13:23:38;36.21;34.92;47.13;;
41704;Laerm;861;48.808;9.006;2023-03-01T13:26:18;36.35;34.79;51.68;;
41704;Laerm;861;48.808;9.006;2023-03-01T13:33:56;36.16;34.61;44.04;;
41704;Laerm;861;48.808;9.006;2023-03-01T13:44:28;36.05;34.74;38.20;;
41704;Laerm;861;48.808;9.006;2023-03-01T13:47:18;36.03;34.42;38.62;;
41704;Laerm;861;48.808;9.006;2023-03-01T13:50:51;36.05;34.66;39.91;;
41704;Laerm;861;48.808;9.006;2023-03-01T13:53:27;36.08;34.77;38.78;;
41704;Laerm;861;48.808;9.006;2023-03-01T13:56:12;36.10;34.57;37.44;;
41704;Laerm;861;48.808;9.006;2023-03-01T13:59:00;36.16;34.82;45.82;;
41704;Laerm;861;48.808;9.006;2023-03-01T14:01:36;36.11;34.71;39.62;;
41704;Laerm;861;48.808;9.006;2023-03-01T14:04:29;36.10;34.63;37.52;;
41704;Laerm;861;48.808;9.006;2023-03-01T14:07:23;36.24;34.59;52.57;;
41704;Laerm;861;48.808;9.006;2023-03-01T14:10:07;35.99;34.54;39.44;;
41704;Laerm;861;48.808;9.006;2023-03-01T14:13:32;36.00;34.61;37.42;;
41704;Laerm;861;48.808;9.006;2023-03-01T14:19:33;35.93;34.30;41.50;;
41704;Laerm;861;48.808;9.006;2023-03-01T14:22:30;35.94;34.35;43.51;;
41704;Laerm;861;48.808;9.006;2023-03-01T14:25:26;35.93;34.64;39.42;;
41704;Laerm;861;48.808;9.006;2023-03-01T14:28:18;35.97;34.48;37.28;;
41704;Laerm;861;48.808;9.006;2023-03-01T14:30:52;36.06;34.40;40.61;;
41704;Laerm;861;48.808;9.006;2023-03-01T14:33:37;35.91;34.57;39.25;;
41704;Laerm;861;48.808;9.006;2023-03-01T14:36:13;35.93;34.65;41.15;;
41704;Laerm;861;48.808;9.006;2023-03-01T14:38:47;35.94;34.64;37.65;;
41704;Laerm;861;48.808;9.006;2023-03-01T14:41:27;35.95;34.57;37.51;;
41704;Laerm;861;48.808;9.006;2023-03-01T14:44:07;36.00;34.42;43.05;;
41704;Laerm;861;48.808;9.006;2023-03-01T14:46:45;36.03;34.38;43.50;;
41704;Laerm;861;48.808;9.006;2023-03-01T14:49:29;35.99;34.61;37.37;;
41704;Laerm;861;48.808;9.006;2023-03-01T14:52:22;35.98;34.71;37.31;;
41704;Laerm;861;48.808;9.006;2023-03-01T14:54:54;35.93;34.34;37.45;;
41704;Laerm;861;48.808;9.006;2023-03-01T14:57:27;35.90;34.48;38.66;;
41704;Laerm;861;48.808;9.006;2023-03-01T15:00:01;35.95;34.37;41.78;;
41704;Laerm;861;48.808;9.006;2023-03-01T15:02:34;36.13;34.42;44.50;;
41704;Laerm;861;48.808;9.006;2023-03-01T15:05:05;36.00;34.49;39.23;;
41704;Laerm;861;48.808;9.006;2023-03-01T15:07:42;35.93;34.46;38.38;;
41704;Laerm;861;48.808;9.006;2023-03-01T15:10:32;35.94;34.53;37.35;;
41704;Laerm;861;48.808;9.006;2023-03-01T15:13:30;35.94;34.48;37.19;;
41704;Laerm;861;48.808;9.006;2023-03-01T15:16:31;35.93;34.61;37.23;;
41704;Laerm;861;48.808;9.006;2023-03-01T15:19:06;35.89;34.41;41.37;;
41704;Laerm;861;48.808;9.006;2023-03-01T15:21:40;35.87;34.16;37.18;;
41704;Laerm;861;48.808;9.006;2023-03-01T15:26:56;35.88;34.58;38.49;;
41704;Laerm;861;48.808;9.006;2023-03-01T15:29:33;35.89;34.31;41.59;;
41704;Laerm;861;48.808;9.006;2023-03-01T15:32:36;35.77;34.34;40.15;;
41704;Laerm;861;48.808;9.006;2023-03-01T15:35:46;35.99;34.08;50.28;;
41704;Laerm;861;48.808;9.006;2023-03-01T15:38:57;35.58;34.24;39.49;;
41704;Laerm;861;48.808;9.006;2023-03-01T15:41:30;35.54;34.22;36.86;;
41704;Laerm;861;48.808;9.006;2023-03-01T15:44:14;35.55;34.17;39.99;;
41704;Laerm;861;48.808;9.006;2023-03-01T15:46:48;35.47;33.85;36.84;;
41704;Laerm;861;48.808;9.006;2023-03-01T15:49:43;35.51;34.17;37.08;;
41704;Laerm;861;48.808;9.006;2023-03-01T16:01:41;35.46;34.11;36.73;;
41704;Laerm;861;48.808;9.006;2023-03-01T16:05:00;35.45;34.02;37.45;;
41704;Laerm;861;48.808;9.006;2023-03-01T16:07:26;35.35;33.57;38.56;;
41704;Laerm;861;48.808;9.006;2023-03-01T16:09:53;35.38;33.99;36.55;;
41704;Laerm;861;48.808;9.006;2023-03-01T16:12:19;35.40;34.01;36.99;;
41704;Laerm;861;48.808;9.006;2023-03-01T16:14:47;35.40;34.05;39.14;;
41704;Laerm;861;48.808;9.006;2023-03-01T16:17:14;35.37;34.04;37.05;;
41704;Laerm;861;48.808;9.006;2023-03-01T16:19:41;35.40;33.95;36.89;;
41704;Laerm;861;48.808;9.006;2023-03-01T16:22:10;35.36;33.89;36.77;;
41704;Laerm;861;48.808;9.006;2023-03-01T16:24:37;35.33;33.97;38.27;;
41704;Laerm;861;48.808;9.006;2023-03-01T16:27:03;35.29;33.57;36.66;;
41704;Laerm;861;48.808;9.006;2023-03-01T16:29:29;35.35;34.01;37.80;;
41704;Laerm;861;48.808;9.006;2023-03-01T16:31:55;35.38;34.08;36.73;;
41704;Laerm;861;48.808;9.006;2023-03-01T16:34:22;35.39;34.07;36.93;;
41704;Laerm;861;48.808;9.006;2023-03-01T16:36:49;35.42;33.89;37.18;;
41704;Laerm;861;48.808;9.006;2023-03-01T16:40:14;35.42;34.18;37.23;;